createdAt,value
2019-05-06T00:01:53.951Z,100589.28
2019-05-06T00:04:25.543Z,100584.56
2019-05-06T00:06:56.959Z,100586.87
2019-05-06T00:09:28.387Z,100582.87
2019-05-06T00:11:59.871Z,100579.12
2019-05-06T00:14:31.376Z,100578.51
2019-05-06T00:17:03.867Z,100572.58
2019-05-06T00:19:36.471Z,100575.85
2019-05-06T00:22:07.825Z,100566.02
2019-05-06T00:24:44.041Z,100568.92
2019-05-06T00:27:17.273Z,100568.17
2019-05-06T00:29:49.008Z,100565.15
2019-05-06T00:32:20.307Z,100568.15
2019-05-06T00:34:51.631Z,100570.69
2019-05-06T00:37:24.132Z,100569.59
2019-05-06T00:39:59.988Z,100570.05
2019-05-06T00:42:34.726Z,100577.55
2019-05-06T00:45:07.622Z,100573.56
2019-05-06T00:47:39.028Z,100577.70
2019-05-06T00:50:10.780Z,100578.80
2019-05-06T00:52:44.586Z,100577.19
2019-05-06T00:55:15.491Z,100573.20
2019-05-06T00:57:46.811Z,100567.91
2019-05-06T01:00:21.294Z,100570.44
2019-05-06T01:02:54.295Z,100569.33
2019-05-06T01:05:25.787Z,100570.41
2019-05-06T01:07:57.236Z,100570.33
2019-05-06T01:10:28.845Z,100565.33
2019-05-06T01:13:04.091Z,100562.79
2019-05-06T01:15:35.174Z,100569.33
2019-05-06T01:18:06.621Z,100558.80
2019-05-06T01:20:37.944Z,100561.43
2019-05-06T01:23:10.845Z,100565.94
2019-05-06T01:25:43.812Z,100560.22
2019-05-06T01:28:15.569Z,100559.86
2019-05-06T01:30:47.250Z,100560.43
2019-05-06T01:33:20.269Z,100560.31
2019-05-06T01:35:54.063Z,100562.76
2019-05-06T01:38:29.239Z,100558.13
2019-05-06T01:41:03.981Z,100556.88
2019-05-06T01:43:37.308Z,100554.59
2019-05-06T01:46:08.981Z,100554.67
2019-05-06T01:48:49.676Z,100560.59
2019-05-06T01:51:24.100Z,100559.51
2019-05-06T01:53:55.184Z,100551.25
2019-05-06T01:56:26.440Z,100553.55
2019-05-06T01:58:57.771Z,100539.36
2019-05-06T02:01:29.163Z,100546.50
2019-05-06T02:04:00.877Z,100550.84
2019-05-06T02:06:34.260Z,100553.34
2019-05-06T02:09:09.763Z,100553.59
2019-05-06T02:11:41.063Z,100549.88
2019-05-06T02:14:13.981Z,100550.44
2019-05-06T02:16:45.617Z,100558.78
2019-05-06T02:19:18.485Z,100551.09
2019-05-06T02:21:51.582Z,100551.28
2019-05-06T02:24:27.620Z,100549.47
2019-05-06T02:26:59.017Z,100550.69
2019-05-06T02:29:35.037Z,100548.98
2019-05-06T02:32:25.641Z,100550.92
2019-05-06T02:34:54.894Z,100551.20
2019-05-06T02:37:40.251Z,100558.30
2019-05-06T02:40:24.713Z,100551.41
2019-05-06T02:42:55.318Z,100543.59
2019-05-06T02:45:27.006Z,100543.67
2019-05-06T02:48:04.394Z,100546.05
2019-05-06T02:50:46.330Z,100542.55
2019-05-06T02:53:19.346Z,100538.55
2019-05-06T02:55:53.147Z,100548.83
2019-05-06T02:58:24.185Z,100550.00
2019-05-06T03:00:56.671Z,100552.27
2019-05-06T03:03:29.171Z,100547.86
2019-05-06T03:06:03.543Z,100545.53
2019-05-06T03:08:33.962Z,100543.88
2019-05-06T03:11:05.508Z,100545.41
2019-05-06T03:13:38.116Z,100538.95
2019-05-06T03:16:09.504Z,100542.34
2019-05-06T03:18:43.378Z,100537.42
2019-05-06T03:21:15.535Z,100543.27
2019-05-06T03:23:48.644Z,100540.52
2019-05-06T03:26:20.116Z,100544.11
2019-05-06T03:28:53.555Z,100541.66
2019-05-06T03:31:26.459Z,100554.16
2019-05-06T03:34:21.766Z,100556.45
2019-05-06T03:36:34.692Z,100553.19
2019-05-06T03:39:06.181Z,100557.05
2019-05-06T03:41:38.697Z,100553.83
2019-05-06T03:44:10.055Z,100558.34
2019-05-06T03:46:53.973Z,100554.88
2019-05-06T03:49:29.364Z,100553.98
2019-05-06T03:52:02.779Z,100549.39
2019-05-06T03:54:34.759Z,100552.91
2019-05-06T03:57:06.232Z,100553.91
2019-05-06T03:59:39.245Z,100549.55
2019-05-06T04:02:13.173Z,100549.35
2019-05-06T04:04:44.279Z,100547.09
2019-05-06T04:07:15.686Z,100537.29
2019-05-06T04:09:47.135Z,100546.48
2019-05-06T04:12:19.812Z,100543.01
2019-05-06T04:14:54.027Z,100540.23
2019-05-06T04:17:33.008Z,100537.53
2019-05-06T04:20:23.593Z,100539.29
2019-05-06T04:23:05.992Z,100541.23
2019-05-06T04:25:52.681Z,100548.13
2019-05-06T04:28:34.170Z,100546.52
2019-05-06T04:31:06.243Z,100546.16
2019-05-06T04:33:37.892Z,100549.42
2019-05-06T04:36:09.324Z,100549.30
2019-05-06T04:38:43.387Z,100546.61
2019-05-06T04:41:14.290Z,100533.69
2019-05-06T04:43:45.898Z,100540.13
2019-05-06T04:46:17.319Z,100537.14
2019-05-06T04:48:48.555Z,100538.11
2019-05-06T04:51:24.391Z,100540.77
2019-05-06T04:53:54.503Z,100532.20
2019-05-06T04:56:25.832Z,100538.28
2019-05-06T04:58:57.437Z,100535.50
2019-05-06T05:01:28.905Z,100538.30
2019-05-06T05:04:03.272Z,100539.44
2019-05-06T05:06:33.517Z,100531.20
2019-05-06T05:09:06.395Z,100535.34
2019-05-06T05:11:42.534Z,100530.61
2019-05-06T05:14:15.772Z,100536.55
2019-05-06T05:17:02.221Z,100539.27
2019-05-06T05:19:34.117Z,100538.99
2019-05-06T05:22:08.532Z,100541.39
2019-05-06T05:24:40.023Z,100544.92
2019-05-06T05:27:12.568Z,100541.83
2019-05-06T05:29:44.248Z,100541.49
2019-05-06T05:32:15.698Z,100539.42
2019-05-06T05:34:49.343Z,100545.61
2019-05-06T05:37:22.614Z,100538.09
2019-05-06T05:39:53.839Z,100538.09
2019-05-06T05:42:30.126Z,100535.03
2019-05-06T05:45:02.656Z,100536.48
2019-05-06T05:47:35.372Z,100532.94
2019-05-06T05:50:13.977Z,100533.90
2019-05-06T05:52:45.344Z,100531.21
2019-05-06T05:55:16.805Z,100531.66
2019-05-06T05:57:48.160Z,100538.87
2019-05-06T06:00:22.482Z,100536.81
2019-05-06T06:02:53.881Z,100527.03
2019-05-06T06:05:25.288Z,100527.66
2019-05-06T06:07:57.108Z,100531.36
2019-05-06T06:10:42.470Z,100529.71
2019-05-06T06:13:13.510Z,100533.25
2019-05-06T06:15:52.559Z,100529.98
2019-05-06T06:18:28.604Z,100527.48
2019-05-06T06:21:17.751Z,100537.52
2019-05-06T06:23:42.493Z,100527.13
2019-05-06T06:26:13.938Z,100533.54
2019-05-06T06:28:46.443Z,100536.16
2019-05-06T06:31:19.919Z,100537.17
2019-05-06T06:33:53.100Z,100539.14
2019-05-06T06:36:26.249Z,100532.97
2019-05-06T06:38:59.371Z,100531.77
2019-05-06T06:41:32.289Z,100527.00
2019-05-06T06:44:05.583Z,100528.63
2019-05-06T06:46:37.103Z,100531.25
2019-05-06T06:49:08.676Z,100527.14
2019-05-06T06:51:42.535Z,100524.64
2019-05-06T06:54:13.960Z,100516.03
2019-05-06T06:56:47.103Z,100514.70
2019-05-06T06:59:22.170Z,100510.25
2019-05-06T07:02:12.121Z,100521.52
2019-05-06T07:04:56.711Z,100512.95
2019-05-06T07:07:41.346Z,100514.19
2019-05-06T07:10:03.326Z,100513.56
2019-05-06T07:12:34.801Z,100509.13
2019-05-06T07:15:07.876Z,100509.83
2019-05-06T07:17:41.860Z,100515.81
2019-05-06T07:20:14.962Z,100516.11
2019-05-06T07:22:48.432Z,100505.94
2019-05-06T07:25:22.106Z,100501.31
2019-05-06T07:27:53.226Z,100507.50
2019-05-06T07:30:26.219Z,100505.42
2019-05-06T07:33:00.436Z,100501.81
2019-05-06T07:35:40.083Z,100506.09
2019-05-06T07:38:03.988Z,100512.95
2019-05-06T07:40:35.342Z,100509.37
2019-05-06T07:43:27.829Z,100500.34
2019-05-06T07:46:02.537Z,100495.41
2019-05-06T07:48:35.413Z,100489.70
2019-05-06T07:51:06.879Z,100490.88
2019-05-06T07:53:38.498Z,100484.23
2019-05-06T07:56:12.104Z,100484.06
2019-05-06T07:58:43.593Z,100481.02
2019-05-06T08:01:15.088Z,100479.02
2019-05-06T08:03:46.490Z,100474.86
2019-05-06T08:06:18.163Z,100468.38
2019-05-06T08:08:49.684Z,100474.20
2019-05-06T08:11:22.635Z,100468.45
2019-05-06T08:13:54.270Z,100461.51
2019-05-06T08:16:27.365Z,100450.64
2019-05-06T08:18:59.949Z,100456.75
2019-05-06T08:21:39.027Z,100452.72
2019-05-06T08:24:12.050Z,100453.22
2019-05-06T08:26:43.635Z,100452.58
2019-05-06T08:29:16.140Z,100456.48
2019-05-06T08:31:47.519Z,100453.19
2019-05-06T08:34:19.350Z,100446.09
2019-05-06T08:36:53.335Z,100457.45
2019-05-06T08:39:24.872Z,100452.00
2019-05-06T08:41:56.428Z,100453.89
2019-05-06T08:44:27.845Z,100455.41
2019-05-06T08:47:02.017Z,100450.85
2019-05-06T08:49:34.815Z,100447.50
2019-05-06T08:52:07.842Z,100442.78
2019-05-06T08:54:43.717Z,100445.17
2019-05-06T08:57:16.658Z,100446.18
2019-05-06T08:59:48.593Z,100440.06
2019-05-06T09:02:22.867Z,100443.07
2019-05-06T09:04:54.281Z,100438.05
2019-05-06T09:07:25.602Z,100438.70
2019-05-06T09:09:56.971Z,100434.30
2019-05-06T09:12:28.969Z,100438.87
2019-05-06T09:15:03.267Z,100427.30
2019-05-06T09:17:33.729Z,100427.48
2019-05-06T09:20:06.360Z,100421.94
2019-05-06T09:22:37.686Z,100414.19
2019-05-06T09:25:09.314Z,100411.68
2019-05-06T09:27:48.219Z,100410.14
2019-05-06T09:30:23.316Z,100407.80
2019-05-06T09:32:54.727Z,100407.78
2019-05-06T09:35:26.244Z,100409.14
2019-05-06T09:37:57.759Z,100411.00
2019-05-06T09:40:29.121Z,100415.38
2019-05-06T09:43:04.676Z,100416.08
2019-05-06T09:45:34.414Z,100404.27
2019-05-06T09:48:13.191Z,100402.42
2019-05-06T09:50:46.845Z,100409.13
2019-05-06T09:53:19.995Z,100399.98
2019-05-06T09:56:05.478Z,100396.89
2019-05-06T09:58:38.533Z,100400.58
2019-05-06T10:01:10.186Z,100405.41
2019-05-06T10:03:42.956Z,100398.34
2019-05-06T10:06:14.468Z,100392.07
2019-05-06T10:08:45.887Z,100400.28
2019-05-06T10:11:17.484Z,100397.44
2019-05-06T10:13:49.020Z,100386.42
2019-05-06T10:16:20.458Z,100386.84
2019-05-06T10:18:52.496Z,100387.03
2019-05-06T10:21:24.902Z,100384.14
2019-05-06T10:23:56.455Z,100383.36
2019-05-06T10:26:29.645Z,100379.20
2019-05-06T10:29:08.737Z,100377.95
2019-05-06T10:31:48.117Z,100375.42
2019-05-06T10:34:19.543Z,100380.67
2019-05-06T10:37:17.969Z,100375.74
2019-05-06T10:39:49.147Z,100377.53
2019-05-06T10:42:23.525Z,100383.59
2019-05-06T10:45:14.840Z,100385.51
2019-05-06T10:47:46.416Z,100379.63
2019-05-06T10:50:17.998Z,100377.91
2019-05-06T10:53:07.322Z,100381.25
2019-05-06T10:55:42.735Z,100378.79
2019-05-06T10:58:15.181Z,100379.57
2019-05-06T11:00:48.815Z,100372.60
2019-05-06T11:03:22.652Z,100367.55
2019-05-06T11:05:55.504Z,100365.50
2019-05-06T11:08:27.032Z,100367.21
2019-05-06T11:11:14.478Z,100358.48
2019-05-06T11:13:32.268Z,100361.05
2019-05-06T11:16:04.093Z,100360.93
2019-05-06T11:18:35.494Z,100357.34
2019-05-06T11:21:06.847Z,100353.56
2019-05-06T11:23:38.307Z,100345.74
2019-05-06T11:26:13.000Z,100348.91
2019-05-06T11:28:54.393Z,100341.52
2019-05-06T11:31:32.961Z,100334.92
2019-05-06T11:34:23.109Z,100328.93
2019-05-06T11:36:56.305Z,100330.28
2019-05-06T11:39:28.694Z,100329.63
2019-05-06T11:42:23.470Z,100329.77
2019-05-06T11:44:36.413Z,100327.89
2019-05-06T11:47:07.814Z,100326.17
2019-05-06T11:49:39.400Z,100323.85
2019-05-06T11:52:13.026Z,100321.95
2019-05-06T11:54:44.041Z,100321.38
2019-05-06T11:57:15.534Z,100320.73
2019-05-06T11:59:47.335Z,100319.56
2019-05-06T12:02:26.679Z,100317.22
2019-05-06T12:04:58.214Z,100312.70
2019-05-06T12:07:30.244Z,100318.48
2019-05-06T12:10:02.553Z,100312.15
2019-05-06T12:12:34.123Z,100318.61
2019-05-06T12:15:07.418Z,100316.59
2019-05-06T12:17:38.873Z,100310.45
2019-05-06T12:20:12.932Z,100303.16
2019-05-06T12:22:44.016Z,100307.43
2019-05-06T12:25:15.784Z,100303.59
2019-05-06T12:27:47.407Z,100296.23
2019-05-06T12:30:23.022Z,100288.78
2019-05-06T12:32:56.246Z,100286.28
2019-05-06T12:35:32.127Z,100292.87
2019-05-06T12:38:11.373Z,100292.44
2019-05-06T12:40:39.631Z,100295.73
2019-05-06T12:43:25.079Z,100300.06
2019-05-06T12:46:02.803Z,100294.20
2019-05-06T12:48:44.041Z,100285.75
2019-05-06T12:51:15.183Z,100281.88
2019-05-06T12:53:46.612Z,100286.16
2019-05-06T12:56:19.052Z,100278.29
2019-05-06T12:58:52.588Z,100276.05
2019-05-06T13:01:24.197Z,100277.21
2019-05-06T13:03:55.729Z,100271.01
2019-05-06T13:06:27.189Z,100265.95
2019-05-06T13:09:04.113Z,100265.35
2019-05-06T13:11:32.555Z,100264.37
2019-05-06T13:14:04.342Z,100268.20
2019-05-06T13:16:37.013Z,100269.34
2019-05-06T13:19:08.250Z,100275.57
2019-05-06T13:21:42.025Z,100268.98
2019-05-06T13:24:13.736Z,100268.36
2019-05-06T13:26:45.420Z,100266.54
2019-05-06T13:29:18.394Z,100261.77
2019-05-06T13:31:52.792Z,100258.27
2019-05-06T13:34:23.677Z,100253.30
2019-05-06T13:36:56.431Z,100253.95
2019-05-06T13:39:28.001Z,100246.47
2019-05-06T13:41:59.749Z,100248.61
2019-05-06T13:44:32.034Z,100243.77
2019-05-06T13:47:12.139Z,100245.96
2019-05-06T13:49:45.264Z,100246.80
2019-05-06T13:52:17.377Z,100242.65
2019-05-06T13:54:48.824Z,100242.33
2019-05-06T13:57:21.277Z,100234.75
2019-05-06T13:59:53.448Z,100237.08
2019-05-06T14:02:26.663Z,100241.63
2019-05-06T14:04:58.146Z,100237.04
2019-05-06T14:07:29.938Z,100239.12
2019-05-06T14:10:02.650Z,100238.80
2019-05-06T14:12:34.531Z,100238.61
2019-05-06T14:15:07.845Z,100232.24
2019-05-06T14:17:39.716Z,100235.95
2019-05-06T14:20:12.646Z,100233.59
2019-05-06T14:22:44.367Z,100228.20
2019-05-06T14:25:23.217Z,100225.53
2019-05-06T14:27:59.609Z,100221.86
2019-05-06T14:30:42.902Z,100219.82
2019-05-06T14:33:16.482Z,100219.81
2019-05-06T14:35:48.071Z,100217.45
2019-05-06T14:38:24.323Z,100210.96
2019-05-06T14:41:07.135Z,100207.76
2019-05-06T14:43:34.694Z,100208.75
2019-05-06T14:46:06.164Z,100207.34
2019-05-06T14:48:37.954Z,100203.88
2019-05-06T14:51:09.571Z,100197.39
2019-05-06T14:53:43.396Z,100195.19
2019-05-06T14:56:18.893Z,100188.55
2019-05-06T14:59:07.092Z,100189.97
2019-05-06T15:01:39.260Z,100180.34
2019-05-06T15:04:12.482Z,100181.78
2019-05-06T15:06:44.250Z,100179.28
2019-05-06T15:09:15.937Z,100182.68
2019-05-06T15:11:48.983Z,100173.48
2019-05-06T15:14:22.702Z,100176.02
2019-05-06T15:16:54.987Z,100173.88
2019-05-06T15:19:26.572Z,100176.45
2019-05-06T15:22:02.388Z,100167.50
2019-05-06T15:24:37.354Z,100169.23
2019-05-06T15:27:12.170Z,100168.34
2019-05-06T15:29:53.165Z,100165.05
2019-05-06T15:32:25.716Z,100164.16
2019-05-06T15:38:43.966Z,100162.47
2019-05-06T15:41:17.136Z,100159.77
2019-05-06T15:43:48.581Z,100157.28
2019-05-06T15:46:22.783Z,100156.49
2019-05-06T15:48:54.388Z,100155.84
2019-05-06T15:51:34.937Z,100145.39
2019-05-06T15:54:06.743Z,100152.17
2019-05-06T15:56:38.179Z,100157.27
2019-05-06T15:59:11.977Z,100158.61
2019-05-06T16:01:43.215Z,100160.47
2019-05-06T16:04:14.799Z,100159.12
2019-05-06T16:06:46.263Z,100155.08
2019-05-06T16:09:17.734Z,100150.23
2019-05-06T16:11:49.264Z,100149.92
2019-05-06T16:14:22.907Z,100153.63
2019-05-06T16:16:55.292Z,100153.98
2019-05-06T16:19:28.760Z,100148.91
2019-05-06T16:22:00.275Z,100153.30
2019-05-06T16:24:36.432Z,100151.97
2019-05-06T16:27:07.904Z,100148.92
2019-05-06T16:29:39.462Z,100147.93
2019-05-06T16:32:11.049Z,100146.43
2019-05-06T16:34:43.432Z,100145.42
2019-05-06T16:37:14.912Z,100156.32
2019-05-06T16:39:46.353Z,100151.47
2019-05-06T16:42:17.876Z,100147.05
2019-05-06T16:44:49.409Z,100147.17
2019-05-06T16:47:38.463Z,100148.86
2019-05-06T16:50:15.967Z,100154.22
2019-05-06T16:52:47.515Z,100155.19
2019-05-06T16:55:24.285Z,100159.17
2019-05-06T16:57:58.075Z,100159.52
2019-05-06T17:00:32.174Z,100162.68
2019-05-06T17:03:14.643Z,100156.07
2019-05-06T17:06:03.283Z,100155.73
2019-05-06T17:08:36.524Z,100155.73
2019-05-06T17:11:08.030Z,100149.80
2019-05-06T17:13:39.753Z,100151.31
2019-05-06T17:16:13.683Z,100144.94
2019-05-06T17:18:44.246Z,100149.63
2019-05-06T17:21:15.922Z,100149.93
2019-05-06T17:23:47.502Z,100153.45
2019-05-06T17:26:18.953Z,100153.52
2019-05-06T17:28:56.614Z,100159.39
2019-05-06T17:31:32.687Z,100161.20
2019-05-06T17:34:05.963Z,100162.03
2019-05-06T17:36:38.933Z,100159.17
2019-05-06T17:39:11.354Z,100159.84
2019-05-06T17:41:48.531Z,100157.67
2019-05-06T17:44:16.812Z,100162.16
2019-05-06T17:46:49.699Z,100167.48
2019-05-06T17:49:25.581Z,100164.75
2019-05-06T17:52:04.709Z,100170.44
2019-05-06T17:54:36.201Z,100160.34
2019-05-06T17:57:07.876Z,100156.94
2019-05-06T17:59:42.238Z,100158.44
2019-05-06T18:02:19.448Z,100163.59
2019-05-06T18:04:53.073Z,100168.90
2019-05-06T18:07:24.145Z,100165.04
2019-05-06T18:09:55.674Z,100165.99
2019-05-06T18:12:27.001Z,100167.20
2019-05-06T18:14:58.509Z,100160.91
2019-05-06T18:17:30.265Z,100164.02
2019-05-06T18:20:03.045Z,100160.92
2019-05-06T18:22:34.445Z,100166.21
2019-05-06T18:25:06.358Z,100167.38
2019-05-06T18:27:38.025Z,100166.82
2019-05-06T18:30:21.931Z,100172.16
2019-05-06T18:32:43.855Z,100165.06
2019-05-06T18:35:15.274Z,100167.74
2019-05-06T18:37:46.776Z,100170.94
2019-05-06T18:40:18.287Z,100168.03
2019-05-06T18:42:52.507Z,100166.00
2019-05-06T18:45:25.739Z,100169.63
2019-05-06T18:47:57.207Z,100166.83
2019-05-06T18:50:28.654Z,100168.70
2019-05-06T18:53:02.298Z,100160.17
2019-05-06T18:55:34.059Z,100165.87
2019-05-06T18:58:06.461Z,100164.50
2019-05-06T19:00:37.788Z,100167.13
2019-05-06T19:03:09.288Z,100165.09
2019-05-06T19:05:42.874Z,100162.70
2019-05-06T19:08:21.883Z,100161.34
2019-05-06T19:10:53.368Z,100159.19
2019-05-06T19:13:24.810Z,100155.92
2019-05-06T19:15:56.448Z,100158.84
2019-05-06T19:18:27.854Z,100154.83
2019-05-06T19:20:59.293Z,100157.17
2019-05-06T19:23:32.120Z,100152.25
2019-05-06T19:26:04.077Z,100154.39
2019-05-06T19:28:35.535Z,100147.45
2019-05-06T19:31:08.183Z,100148.11
2019-05-06T19:33:39.855Z,100155.05
2019-05-06T19:36:12.591Z,100155.63
2019-05-06T19:38:44.335Z,100151.45
2019-05-06T19:41:15.864Z,100152.45
2019-05-06T19:43:47.269Z,100153.45
2019-05-06T19:46:18.684Z,100153.45
2019-05-06T19:48:52.270Z,100149.16
2019-05-06T19:51:23.516Z,100149.66
2019-05-06T19:53:55.090Z,100155.70
2019-05-06T19:56:26.591Z,100151.75
2019-05-06T19:58:58.226Z,100151.28
2019-05-06T20:01:32.199Z,100142.81
2019-05-06T20:04:03.221Z,100145.92
2019-05-06T20:06:48.885Z,100148.00
2019-05-06T20:09:23.124Z,100149.48
2019-05-06T20:12:02.842Z,100150.02
2019-05-06T20:14:34.309Z,100151.94
2019-05-06T20:17:06.014Z,100148.89
2019-05-06T20:19:37.472Z,100146.83
2019-05-06T20:22:08.991Z,100149.25
2019-05-06T20:24:42.476Z,100157.51
2019-05-06T20:27:13.595Z,100153.15
2019-05-06T20:29:45.189Z,100156.66
2019-05-06T20:32:16.781Z,100156.66
2019-05-06T20:34:50.025Z,100154.98
2019-05-06T20:37:22.313Z,100155.40
2019-05-06T20:39:53.641Z,100158.00
2019-05-06T20:42:26.122Z,100161.33
2019-05-06T20:44:57.464Z,100166.03
2019-05-06T20:47:28.834Z,100160.45
2019-05-06T20:50:02.233Z,100165.18
2019-05-06T20:52:33.312Z,100170.12
2019-05-06T20:55:12.451Z,100166.95
2019-05-06T20:57:42.182Z,100164.80
2019-05-06T21:00:15.773Z,100168.63
2019-05-06T21:02:47.376Z,100168.12
2019-05-06T21:05:18.753Z,100166.03
2019-05-06T21:07:52.410Z,100165.69
2019-05-06T21:10:23.411Z,100164.69
2019-05-06T21:12:55.235Z,100163.36
2019-05-06T21:15:27.682Z,100166.37
2019-05-06T21:18:03.605Z,100162.32
2019-05-06T21:20:34.133Z,100153.34
2019-05-06T21:23:05.572Z,100147.84
2019-05-06T21:25:36.969Z,100146.16
2019-05-06T21:28:08.529Z,100142.56
2019-05-06T21:30:40.039Z,100138.25
2019-05-06T21:33:12.432Z,100129.84
2019-05-06T21:35:44.136Z,100137.52
2019-05-06T21:38:15.493Z,100131.17
2019-05-06T21:40:46.898Z,100127.36
2019-05-06T21:43:18.425Z,100126.10
2019-05-06T21:45:49.843Z,100127.66
2019-05-06T21:48:22.216Z,100120.83
2019-05-06T21:50:53.800Z,100128.70
2019-05-06T21:53:25.281Z,100123.92
2019-05-06T21:55:56.674Z,100119.87
2019-05-06T21:58:27.903Z,100121.28
2019-05-06T22:01:02.341Z,100124.38
2019-05-06T22:03:35.601Z,100121.02
2019-05-06T22:06:07.052Z,100124.25
2019-05-06T22:08:38.421Z,100120.97
2019-05-06T22:11:09.765Z,100121.01
2019-05-06T22:13:42.573Z,100114.43
2019-05-06T22:16:14.162Z,100116.69
2019-05-06T22:18:45.756Z,100115.45
2019-05-06T22:21:18.722Z,100119.32
2019-05-06T22:23:54.483Z,100115.51
2019-05-06T22:26:27.077Z,100113.67
2019-05-06T22:28:58.430Z,100114.89
2019-05-06T22:31:29.799Z,100105.41
2019-05-06T22:34:01.114Z,100118.42
2019-05-06T22:36:32.534Z,100112.08
2019-05-06T22:39:05.522Z,100110.31
2019-05-06T22:41:38.293Z,100112.00
2019-05-06T22:44:13.662Z,100104.28
2019-05-06T22:46:43.801Z,100110.62
2019-05-06T22:49:15.133Z,100109.39
2019-05-06T22:51:46.598Z,100114.55
2019-05-06T22:54:17.909Z,100116.95
2019-05-06T22:56:49.292Z,100115.83
2019-05-06T22:59:24.459Z,100118.84
2019-05-06T23:01:58.218Z,100123.46
2019-05-06T23:04:32.440Z,100121.92
2019-05-06T23:07:04.820Z,100117.34
2019-05-06T23:09:36.406Z,100117.22
2019-05-06T23:12:07.802Z,100115.16
2019-05-06T23:14:39.253Z,100116.99
2019-05-06T23:17:12.700Z,100116.21
2019-05-06T23:19:43.613Z,100111.11
2019-05-06T23:22:14.889Z,100103.58
2019-05-06T23:24:46.201Z,100105.67
2019-05-06T23:27:17.803Z,100109.62
2019-05-06T23:29:49.231Z,100106.81
2019-05-06T23:32:22.741Z,100095.78
2019-05-06T23:34:53.831Z,100095.98
2019-05-06T23:37:23.930Z,100087.19
2019-05-06T23:40:33.447Z,100086.78
2019-05-06T23:43:42.673Z,100084.31
2019-05-06T23:46:52.840Z,100084.81
2019-05-06T23:50:00.277Z,100079.61
2019-05-06T23:53:07.962Z,100083.27
2019-05-06T23:56:15.787Z,100080.72
2019-05-06T23:58:47.117Z,100084.66
